createdAt,value
2022-12-18T00:02:12.575Z,9.95
2022-12-18T00:04:39.341Z,9.88
2022-12-18T00:07:06.191Z,10.45
2022-12-18T00:09:39.569Z,9.75
2022-12-18T00:14:43.162Z,11.02
2022-12-18T00:17:10.105Z,11.52
2022-12-18T00:19:36.952Z,10.70
2022-12-18T00:22:03.732Z,11.02
2022-12-18T00:24:30.538Z,10.93
2022-12-18T00:26:58.377Z,11.13
2022-12-18T00:29:25.125Z,9.27
2022-12-18T00:31:51.964Z,11.10
2022-12-18T00:34:18.943Z,9.90
2022-12-18T00:36:47.307Z,10.57
2022-12-18T00:39:14.145Z,11.10
2022-12-18T00:42:03.189Z,10.30
2022-12-18T00:44:29.933Z,11.35
2022-12-18T00:46:56.712Z,10.77
2022-12-18T00:49:23.472Z,11.23
2022-12-18T00:51:50.857Z,11.00
2022-12-18T00:54:18.485Z,10.85
2022-12-18T00:56:49.278Z,10.85
2022-12-18T00:59:17.391Z,11.60
2022-12-18T01:01:44.237Z,11.15
2022-12-18T01:04:11.098Z,10.63
2022-12-18T01:06:37.902Z,11.07
2022-12-18T01:09:04.692Z,10.05
2022-12-18T01:11:31.633Z,10.40
2022-12-18T01:13:58.399Z,12.02
2022-12-18T01:16:25.175Z,11.00
2022-12-18T01:18:55.505Z,10.82
2022-12-18T01:21:22.523Z,10.20
2022-12-18T01:23:53.085Z,9.52
2022-12-18T01:26:19.930Z,10.77
2022-12-18T01:28:46.762Z,11.20
2022-12-18T01:31:26.922Z,10.18
2022-12-18T01:33:55.328Z,11.27
2022-12-18T01:36:23.968Z,13.02
2022-12-18T01:38:51.117Z,10.65
2022-12-18T01:41:26.897Z,10.27
2022-12-18T01:43:55.593Z,10.98
2022-12-18T01:46:23.387Z,10.95
2022-12-18T01:48:52.051Z,11.45
2022-12-18T01:51:18.800Z,10.88
2022-12-18T01:53:45.791Z,10.77
2022-12-18T01:56:19.999Z,9.68
2022-12-18T01:58:57.372Z,10.88
2022-12-18T02:01:25.132Z,11.07
2022-12-18T02:03:52.469Z,11.10
2022-12-18T02:06:30.064Z,11.00
2022-12-18T02:09:13.273Z,11.18
2022-12-18T02:12:01.324Z,11.23
2022-12-18T02:14:31.660Z,9.65
2022-12-18T02:17:06.086Z,9.57
2022-12-18T02:19:49.776Z,9.68
2022-12-18T02:22:38.566Z,8.60
2022-12-18T02:25:24.646Z,9.57
2022-12-18T02:27:52.105Z,10.70
2022-12-18T02:30:20.681Z,11.65
2022-12-18T02:32:50.191Z,10.75
2022-12-18T02:35:20.480Z,11.13
2022-12-18T02:37:50.798Z,11.00
2022-12-18T02:40:17.839Z,11.43
2022-12-18T02:42:45.306Z,10.40
2022-12-18T02:45:16.022Z,10.95
2022-12-18T02:47:44.574Z,11.68
2022-12-18T02:50:30.543Z,10.40
2022-12-18T02:53:07.585Z,10.32
2022-12-18T02:55:47.096Z,10.13
2022-12-18T02:58:34.681Z,9.93
2022-12-18T03:01:12.725Z,9.02
2022-12-18T03:04:01.646Z,9.20
2022-12-18T03:06:34.622Z,8.50
2022-12-18T03:09:03.803Z,9.48
2022-12-18T03:11:52.516Z,8.38
2022-12-18T03:14:19.408Z,9.80
2022-12-18T03:16:49.092Z,9.43
2022-12-18T03:19:20.780Z,10.65
2022-12-18T03:21:54.509Z,9.80
2022-12-18T03:24:21.357Z,10.05
2022-12-18T03:26:51.789Z,9.60
2022-12-18T03:29:31.833Z,9.77
2022-12-18T03:32:22.469Z,11.48
2022-12-18T03:34:50.964Z,11.15
2022-12-18T03:37:20.693Z,10.45
2022-12-18T03:39:47.907Z,10.98
2022-12-18T03:42:20.791Z,10.77
2022-12-18T03:45:13.536Z,12.68
2022-12-18T03:47:54.534Z,11.85
2022-12-18T03:50:50.682Z,10.82
2022-12-18T03:53:43.485Z,12.43
2022-12-18T03:56:11.744Z,11.75
2022-12-18T03:58:41.012Z,12.93
2022-12-18T04:01:22.084Z,13.40
2022-12-18T04:03:49.156Z,13.30
2022-12-18T04:06:17.641Z,14.05
2022-12-18T04:08:45.295Z,12.75
2022-12-18T04:11:15.956Z,13.18
2022-12-18T04:13:44.616Z,13.05
2022-12-18T04:16:19.531Z,13.88
2022-12-18T04:22:46.407Z,12.77
2022-12-18T04:25:14.316Z,12.70
2022-12-18T04:32:12.490Z,12.00
2022-12-18T04:34:41.925Z,13.63
2022-12-18T04:37:09.257Z,13.43
2022-12-18T04:39:36.788Z,11.75
2022-12-18T04:42:09.008Z,12.23
2022-12-18T04:44:35.793Z,12.00
2022-12-18T04:47:02.643Z,12.75
2022-12-18T04:49:29.390Z,11.63
2022-12-18T04:51:56.369Z,11.85
2022-12-18T04:54:23.227Z,11.23
2022-12-18T04:56:50.417Z,11.68
2022-12-18T04:59:17.242Z,13.00
2022-12-18T05:01:44.204Z,11.45
2022-12-18T05:04:11.461Z,11.88
2022-12-18T05:06:38.313Z,12.07
2022-12-18T05:09:05.212Z,11.73
2022-12-18T05:11:32.836Z,12.20
2022-12-18T05:13:59.602Z,11.13
2022-12-18T05:16:26.516Z,11.98
2022-12-18T05:18:53.393Z,10.85
2022-12-18T05:21:20.151Z,11.73
2022-12-18T05:23:46.950Z,11.35
2022-12-18T05:26:16.696Z,10.57
2022-12-18T05:28:43.567Z,10.93
2022-12-18T05:31:10.571Z,11.75
2022-12-18T05:33:37.826Z,10.70
2022-12-18T05:36:06.992Z,10.85
2022-12-18T05:38:35.583Z,11.18
2022-12-18T05:41:02.536Z,10.35
2022-12-18T05:43:29.824Z,10.80
2022-12-18T05:45:57.811Z,12.20
2022-12-18T05:48:24.676Z,11.23
2022-12-18T05:50:51.700Z,9.90
2022-12-18T05:53:20.198Z,12.00
2022-12-18T05:55:47.361Z,9.95
2022-12-18T05:58:14.368Z,10.88
2022-12-18T06:00:42.472Z,10.77
2022-12-18T06:03:10.222Z,10.25
2022-12-18T06:05:38.538Z,10.70
2022-12-18T06:08:05.906Z,11.38
2022-12-18T06:10:33.296Z,10.82
2022-12-18T06:13:00.334Z,11.23
2022-12-18T06:15:27.150Z,11.30
2022-12-18T06:17:54.094Z,9.55
2022-12-18T06:20:21.073Z,10.38
2022-12-18T06:22:47.864Z,9.85
2022-12-18T06:25:14.745Z,9.95
2022-12-18T06:27:41.617Z,9.20
2022-12-18T06:30:10.478Z,10.02
2022-12-18T06:32:37.401Z,10.63
2022-12-18T06:35:04.887Z,9.55
2022-12-18T06:37:32.480Z,9.02
2022-12-18T06:39:59.396Z,8.60
2022-12-18T06:42:26.243Z,9.40
2022-12-18T06:44:53.337Z,9.82
2022-12-18T06:47:20.130Z,9.00
2022-12-18T06:49:46.896Z,9.45
2022-12-18T06:52:13.707Z,9.63
2022-12-18T06:54:40.471Z,8.73
2022-12-18T06:57:07.223Z,8.23
2022-12-18T06:59:34.097Z,8.27
2022-12-18T07:02:01.106Z,8.20
2022-12-18T07:04:31.022Z,8.93
2022-12-18T07:06:58.355Z,7.75
2022-12-18T07:09:25.388Z,7.18
2022-12-18T07:11:52.988Z,8.18
2022-12-18T07:14:19.843Z,7.53
2022-12-18T07:16:46.730Z,7.78
2022-12-18T07:19:13.514Z,8.43
2022-12-18T07:21:40.335Z,7.68
2022-12-18T07:24:07.545Z,8.13
2022-12-18T07:26:34.727Z,8.65
2022-12-18T07:29:01.575Z,8.20
2022-12-18T07:31:28.441Z,8.07
2022-12-18T07:33:55.368Z,7.57
2022-12-18T07:36:25.309Z,7.53
2022-12-18T07:38:53.621Z,6.60
2022-12-18T07:41:20.774Z,7.78
2022-12-18T07:43:47.832Z,12.57
2022-12-18T07:46:15.897Z,10.68
2022-12-18T07:48:46.196Z,10.18
2022-12-18T07:51:16.565Z,12.70
2022-12-18T07:53:44.036Z,12.63
2022-12-18T07:56:27.217Z,15.57
2022-12-18T07:58:55.617Z,15.85
2022-12-18T08:01:22.521Z,17.20
2022-12-18T08:03:50.064Z,20.98
2022-12-18T08:06:19.669Z,20.95
2022-12-18T08:08:52.508Z,20.38
2022-12-18T08:11:19.348Z,20.85
2022-12-18T08:13:46.549Z,22.42
2022-12-18T08:16:13.516Z,28.88
2022-12-18T08:18:40.352Z,20.17
2022-12-18T08:21:15.969Z,22.77
2022-12-18T08:23:43.756Z,21.60
2022-12-18T08:26:14.300Z,21.30
2022-12-18T08:28:41.443Z,21.75
2022-12-18T08:31:08.652Z,24.90
2022-12-18T08:33:35.916Z,21.67
2022-12-18T08:36:02.890Z,22.27
2022-12-18T08:38:30.686Z,21.23
2022-12-18T08:41:08.450Z,19.48
2022-12-18T08:43:53.853Z,12.32
2022-12-18T08:46:21.627Z,13.05
2022-12-18T08:48:48.543Z,12.00
2022-12-18T08:51:17.176Z,11.52
2022-12-18T08:53:45.345Z,11.07
2022-12-18T08:56:12.502Z,17.55
2022-12-18T08:58:39.320Z,14.10
2022-12-18T09:01:07.600Z,18.50
2022-12-18T09:03:34.606Z,14.88
2022-12-18T09:06:01.545Z,24.00
2022-12-18T09:08:28.738Z,23.33
2022-12-18T09:10:56.141Z,23.33
2022-12-18T09:13:23.044Z,22.70
2022-12-18T09:15:54.349Z,24.75
2022-12-18T09:18:21.856Z,22.58
2022-12-18T09:20:48.832Z,21.23
2022-12-18T09:23:15.668Z,21.15
2022-12-18T09:25:42.469Z,23.70
2022-12-18T09:28:16.365Z,20.42
2022-12-18T09:30:46.917Z,23.30
2022-12-18T09:33:14.683Z,22.80
2022-12-18T09:35:42.208Z,21.45
2022-12-18T09:38:10.011Z,23.40
2022-12-18T09:40:40.824Z,21.73
2022-12-18T09:43:08.280Z,25.45
2022-12-18T09:45:45.321Z,23.27
2022-12-18T09:48:24.726Z,22.10
2022-12-18T09:50:51.697Z,22.75
2022-12-18T09:53:23.733Z,23.13
2022-12-18T09:55:50.607Z,25.20
2022-12-18T09:58:29.323Z,25.08
2022-12-18T10:00:56.261Z,25.60
2022-12-18T10:03:23.234Z,23.92
2022-12-18T10:05:50.169Z,29.17
2022-12-18T10:08:39.835Z,24.50
2022-12-18T10:11:45.739Z,26.40
2022-12-18T10:14:39.516Z,26.30
2022-12-18T10:17:37.663Z,25.40
2022-12-18T10:20:17.622Z,27.27
2022-12-18T10:23:02.455Z,26.00
2022-12-18T10:25:41.157Z,24.73
2022-12-18T10:28:17.757Z,25.60
2022-12-18T10:30:44.933Z,25.50
2022-12-18T10:33:16.943Z,24.77
2022-12-18T10:35:43.949Z,28.25
2022-12-18T10:38:13.792Z,25.67
2022-12-18T10:40:57.198Z,24.50
2022-12-18T10:43:31.648Z,26.10
2022-12-18T10:46:19.290Z,24.23
2022-12-18T10:48:49.491Z,25.58
2022-12-18T10:51:27.291Z,25.42
2022-12-18T10:54:00.609Z,22.42
2022-12-18T10:56:29.082Z,24.25
2022-12-18T10:59:00.863Z,24.45
2022-12-18T11:01:28.523Z,24.83
2022-12-18T11:04:02.657Z,25.10
2022-12-18T11:06:29.717Z,23.90
2022-12-18T11:09:13.291Z,23.85
2022-12-18T11:11:42.044Z,25.75
2022-12-18T11:14:18.946Z,23.95
2022-12-18T11:17:24.954Z,28.67
2022-12-18T11:19:38.707Z,24.55
2022-12-18T11:22:39.435Z,25.67
2022-12-18T11:25:32.448Z,25.63
2022-12-18T11:28:02.395Z,25.38
2022-12-18T11:30:37.139Z,24.48
2022-12-18T11:33:22.634Z,25.73
2022-12-18T11:35:51.126Z,25.40
2022-12-18T11:38:30.723Z,23.80
2022-12-18T11:40:57.693Z,26.05
2022-12-18T11:43:46.641Z,26.23
2022-12-18T11:46:24.591Z,25.95
2022-12-18T11:48:55.792Z,23.70
2022-12-18T11:51:37.499Z,23.65
2022-12-18T11:54:14.786Z,26.02
2022-12-18T11:56:52.436Z,24.77
2022-12-18T11:59:43.459Z,26.02
2022-12-18T12:02:29.260Z,26.27
2022-12-18T12:05:15.732Z,25.10
2022-12-18T12:07:48.855Z,26.73
2022-12-18T12:10:43.402Z,23.77
2022-12-18T12:13:41.689Z,24.65
2022-12-18T12:16:22.096Z,23.95
2022-12-18T12:19:35.222Z,24.63
2022-12-18T12:22:10.908Z,25.90
2022-12-18T12:24:40.540Z,25.08
2022-12-18T12:27:23.829Z,28.40
2022-12-18T12:32:40.589Z,28.05
2022-12-18T12:35:37.195Z,25.73
2022-12-18T12:38:25.162Z,25.63
2022-12-18T12:41:37.748Z,25.30
2022-12-18T12:44:06.972Z,26.17
2022-12-18T12:46:38.071Z,25.38
2022-12-18T12:49:05.320Z,28.27
2022-12-18T12:51:36.962Z,26.73
2022-12-18T12:54:07.256Z,27.47
2022-12-18T12:56:59.908Z,27.83
2022-12-18T12:59:45.516Z,27.35
2022-12-18T13:02:24.389Z,25.73
2022-12-18T13:05:25.633Z,26.00
2022-12-18T13:08:03.510Z,28.00
2022-12-18T13:10:40.179Z,26.33
2022-12-18T13:13:18.677Z,27.27
2022-12-18T13:16:07.614Z,26.85
2022-12-18T13:18:34.584Z,26.83
2022-12-18T13:21:03.567Z,26.83
2022-12-18T13:23:37.520Z,27.95
2022-12-18T13:26:07.357Z,28.13
2022-12-18T13:28:34.514Z,26.20
2022-12-18T13:31:02.307Z,26.27
2022-12-18T13:33:56.328Z,27.27
2022-12-18T13:36:31.182Z,26.52
2022-12-18T13:39:23.292Z,27.77
2022-12-18T13:42:06.422Z,28.52
2022-12-18T13:44:40.999Z,28.08
2022-12-18T13:47:36.102Z,28.65
2022-12-18T13:50:10.478Z,27.10
2022-12-18T13:52:38.575Z,28.02
2022-12-18T13:55:08.176Z,28.77
2022-12-18T13:57:41.839Z,27.65
2022-12-18T14:00:29.424Z,27.02
2022-12-18T14:02:58.038Z,28.33
2022-12-18T14:05:27.759Z,28.90
2022-12-18T14:07:55.134Z,28.35
2022-12-18T14:13:10.791Z,29.73
2022-12-18T14:15:43.482Z,30.17
2022-12-18T14:18:24.124Z,28.90
2022-12-18T14:20:55.913Z,29.63
2022-12-18T14:23:42.684Z,30.23
2022-12-18T14:26:30.532Z,31.00
2022-12-18T14:29:02.343Z,29.42
2022-12-18T14:31:30.585Z,28.98
2022-12-18T14:33:57.504Z,32.15
2022-12-18T14:36:26.102Z,31.42
2022-12-18T14:38:59.625Z,29.77
2022-12-18T14:41:26.769Z,29.65
2022-12-18T14:43:54.832Z,28.27
2022-12-18T14:46:34.168Z,28.77
2022-12-18T14:49:28.340Z,29.17
2022-12-18T14:51:56.904Z,27.63
2022-12-18T14:54:24.719Z,27.25
2022-12-18T14:57:11.373Z,26.05
2022-12-18T14:59:39.457Z,28.60
2022-12-18T15:02:26.708Z,26.50
2022-12-18T15:05:17.205Z,27.38
2022-12-18T15:07:45.951Z,28.65
2022-12-18T15:10:19.970Z,27.98
2022-12-18T15:12:48.179Z,28.00
2022-12-18T15:15:33.988Z,26.77
2022-12-18T15:18:11.446Z,26.85
2022-12-18T15:20:52.318Z,29.25
2022-12-18T15:23:36.603Z,28.52
2022-12-18T15:26:06.110Z,28.83
2022-12-18T15:28:36.023Z,31.10
2022-12-18T15:31:07.965Z,28.63
2022-12-18T15:33:36.957Z,30.08
2022-12-18T15:36:14.254Z,30.17
2022-12-18T15:38:41.107Z,27.55
2022-12-18T15:41:14.548Z,39.35
2022-12-18T15:43:42.398Z,36.72
2022-12-18T15:46:22.839Z,38.55
2022-12-18T15:48:51.264Z,35.25
2022-12-18T15:51:26.908Z,39.25
2022-12-18T15:53:55.524Z,35.70
2022-12-18T15:56:41.470Z,36.85
2022-12-18T15:59:15.738Z,36.88
2022-12-18T16:01:43.213Z,37.97
2022-12-18T16:04:14.094Z,37.22
2022-12-18T16:07:12.749Z,35.25
2022-12-18T16:09:28.097Z,37.42
2022-12-18T16:11:54.872Z,34.63
2022-12-18T16:14:29.495Z,33.33
2022-12-18T16:17:03.596Z,37.55
2022-12-18T16:19:30.632Z,39.53
2022-12-18T16:21:58.227Z,41.83
2022-12-18T16:24:28.659Z,37.88
2022-12-18T16:26:56.242Z,35.10
2022-12-18T16:29:27.928Z,36.75
2022-12-18T16:31:58.882Z,42.03
2022-12-18T16:34:29.030Z,41.63
2022-12-18T16:37:01.715Z,36.75
2022-12-18T16:39:32.922Z,35.67
2022-12-18T16:42:00.019Z,34.63
2022-12-18T16:44:28.790Z,49.50
2022-12-18T16:46:55.662Z,33.28
2022-12-18T16:49:22.677Z,30.95
2022-12-18T16:51:49.473Z,32.08
2022-12-18T16:54:19.171Z,35.42
2022-12-18T16:56:49.848Z,39.10
2022-12-18T16:59:16.674Z,37.63
2022-12-18T17:01:44.806Z,38.78
2022-12-18T17:04:11.868Z,34.78
2022-12-18T17:06:42.299Z,32.20
2022-12-18T17:09:14.920Z,32.88
2022-12-18T17:11:41.891Z,32.72
2022-12-18T17:14:10.392Z,32.33
2022-12-18T17:16:37.336Z,28.75
2022-12-18T17:19:05.559Z,31.38
2022-12-18T17:21:32.439Z,31.88
2022-12-18T17:24:02.693Z,29.55
2022-12-18T17:26:29.683Z,28.58
2022-12-18T17:28:57.271Z,31.60
2022-12-18T17:31:26.635Z,31.35
2022-12-18T17:33:53.790Z,35.35
2022-12-18T17:36:21.969Z,32.83
2022-12-18T17:38:53.195Z,31.95
2022-12-18T17:41:20.024Z,29.63
2022-12-18T17:43:57.792Z,29.60
2022-12-18T17:46:25.868Z,28.63
2022-12-18T17:48:55.000Z,28.02
2022-12-18T17:51:21.804Z,25.63
2022-12-18T17:53:48.692Z,31.55
2022-12-18T17:56:16.889Z,30.35
2022-12-18T17:58:43.867Z,27.27
2022-12-18T18:01:13.061Z,25.77
2022-12-18T18:03:42.574Z,25.38
2022-12-18T18:06:09.786Z,28.08
2022-12-18T18:08:37.110Z,29.23
2022-12-18T18:11:24.475Z,30.63
2022-12-18T18:14:04.546Z,32.83
2022-12-18T18:16:36.405Z,33.05
2022-12-18T18:19:06.000Z,33.33
2022-12-18T18:21:33.458Z,32.45
2022-12-18T18:24:03.733Z,29.83
2022-12-18T18:26:31.655Z,30.00
2022-12-18T18:28:59.680Z,29.50
2022-12-18T18:31:28.940Z,28.60
2022-12-18T18:33:55.976Z,28.65
2022-12-18T18:36:23.368Z,27.83
2022-12-18T18:38:50.905Z,30.63
2022-12-18T18:41:18.197Z,28.15
2022-12-18T18:43:45.233Z,25.50
2022-12-18T18:46:13.509Z,27.25
2022-12-18T18:48:42.370Z,26.42
2022-12-18T18:51:14.675Z,26.13
2022-12-18T18:53:50.063Z,27.83
2022-12-18T18:59:05.810Z,28.67
2022-12-18T19:01:33.051Z,29.40
2022-12-18T19:04:03.160Z,29.40
2022-12-18T19:06:30.036Z,26.45
2022-12-18T19:08:58.536Z,27.75
2022-12-18T19:11:44.379Z,27.80
2022-12-18T19:14:12.422Z,27.38
2022-12-18T19:16:39.338Z,27.40
2022-12-18T19:19:06.681Z,26.73
2022-12-18T19:21:34.744Z,28.60
2022-12-18T19:24:02.497Z,29.27
2022-12-18T19:26:29.564Z,27.52
2022-12-18T19:29:03.738Z,28.15
2022-12-18T19:31:35.221Z,25.40
2022-12-18T19:34:03.075Z,25.88
2022-12-18T19:36:30.172Z,25.98
2022-12-18T19:38:58.853Z,25.90
2022-12-18T19:41:25.864Z,25.95
2022-12-18T19:43:55.952Z,25.00
2022-12-18T19:46:23.814Z,26.30
2022-12-18T19:48:50.723Z,27.38
2022-12-18T19:51:19.747Z,26.25
2022-12-18T19:53:46.762Z,24.15
2022-12-18T19:56:15.529Z,25.27
2022-12-18T19:58:42.859Z,26.67
2022-12-18T20:01:09.969Z,25.55
2022-12-18T20:03:39.164Z,26.60
2022-12-18T20:06:32.330Z,27.60
2022-12-18T20:09:01.530Z,23.80
2022-12-18T20:11:29.736Z,27.10
2022-12-18T20:13:57.087Z,26.33
2022-12-18T20:16:24.187Z,26.30
2022-12-18T20:18:51.398Z,26.05
2022-12-18T20:21:19.150Z,26.10
2022-12-18T20:23:46.250Z,25.23
2022-12-18T20:26:13.055Z,26.27
2022-12-18T20:28:40.680Z,25.33
2022-12-18T20:31:13.755Z,26.02
2022-12-18T20:33:41.440Z,27.40
2022-12-18T20:40:34.559Z,24.67
2022-12-18T20:43:04.662Z,26.30
2022-12-18T20:45:31.628Z,25.20
2022-12-18T20:47:59.513Z,25.98
2022-12-18T20:50:26.534Z,24.95
2022-12-18T20:52:53.383Z,25.73
2022-12-18T20:55:20.313Z,26.92
2022-12-18T20:57:47.307Z,26.10
2022-12-18T21:00:15.602Z,26.88
2022-12-18T21:02:47.103Z,26.00
2022-12-18T21:05:14.013Z,26.95
2022-12-18T21:07:40.904Z,25.27
2022-12-18T21:10:58.831Z,23.65
2022-12-18T21:13:26.484Z,26.60
2022-12-18T21:15:55.502Z,26.50
2022-12-18T21:18:22.364Z,27.63
2022-12-18T21:20:49.272Z,26.50
2022-12-18T21:23:17.060Z,25.98
2022-12-18T21:25:45.663Z,24.60
2022-12-18T21:28:13.833Z,25.65
2022-12-18T21:30:40.899Z,26.70
2022-12-18T21:33:07.748Z,23.75
2022-12-18T21:35:34.565Z,22.48
2022-12-18T21:38:01.773Z,24.50
2022-12-18T21:40:31.092Z,26.25
2022-12-18T21:43:17.878Z,25.80
2022-12-18T21:45:44.784Z,25.60
2022-12-18T21:48:12.250Z,26.92
2022-12-18T21:50:39.048Z,24.80
2022-12-18T21:53:05.815Z,23.65
2022-12-18T21:55:32.612Z,22.27
2022-12-18T21:57:59.474Z,22.80
2022-12-18T22:00:26.338Z,21.05
2022-12-18T22:03:03.313Z,21.33
2022-12-18T22:05:40.644Z,20.30
2022-12-18T22:08:07.878Z,21.48
2022-12-18T22:10:35.130Z,21.85
2022-12-18T22:13:02.242Z,20.17
2022-12-18T22:15:29.081Z,19.75
2022-12-18T22:18:00.067Z,19.90
2022-12-18T22:20:27.782Z,21.77
2022-12-18T22:22:56.178Z,21.10
2022-12-18T22:25:22.986Z,20.65
2022-12-18T22:28:08.475Z,21.25
2022-12-18T22:30:35.698Z,20.33
2022-12-18T22:33:03.577Z,19.55
2022-12-18T22:35:30.524Z,18.63
2022-12-18T22:37:59.652Z,19.38
2022-12-18T22:40:27.054Z,19.48
2022-12-18T22:42:54.460Z,21.45
2022-12-18T22:45:21.270Z,19.98
2022-12-18T22:47:48.071Z,18.40
2022-12-18T22:50:14.945Z,18.58
2022-12-18T22:52:41.769Z,16.23
2022-12-18T22:55:08.749Z,17.42
2022-12-18T22:57:35.565Z,15.43
2022-12-18T23:00:04.632Z,14.05
2022-12-18T23:02:31.622Z,13.20
2022-12-18T23:04:58.492Z,13.55
2022-12-18T23:07:25.338Z,14.20
2022-12-18T23:09:59.571Z,15.52
2022-12-18T23:12:27.679Z,15.32
2022-12-18T23:14:54.618Z,14.55
2022-12-18T23:17:21.454Z,14.55
2022-12-18T23:19:49.428Z,15.80
2022-12-18T23:22:17.170Z,14.07
2022-12-18T23:24:44.178Z,14.13
2022-12-18T23:27:11.879Z,13.18
2022-12-18T23:29:39.637Z,13.60
2022-12-18T23:32:06.666Z,13.82
2022-12-18T23:34:33.466Z,13.25
2022-12-18T23:37:01.152Z,13.48
2022-12-18T23:39:29.777Z,11.15
2022-12-18T23:42:00.067Z,13.65
2022-12-18T23:44:27.122Z,13.30
2022-12-18T23:46:54.125Z,13.43
2022-12-18T23:49:20.974Z,12.63
2022-12-18T23:51:48.141Z,14.35
2022-12-18T23:54:14.999Z,12.18
2022-12-18T23:56:41.880Z,11.88
2022-12-18T23:59:08.792Z,12.90
